East Grinstead, United Kingdom
Current Conditions -  °F | °C
As of 9:20 PM on Wednesday 26 Nov 2014 (Local Time) from EGKK Reporting Station
Light Rain Light Rain  
Wind Chill: 50°   Ceiling: 200
Heat Index: 50°   Visibility: 1mi
Dew Point: 50°   Wind: 2mph
Humidity: 100%   Direction: NA
Pressure: 29.77"   Gusts: NA
Location:  51.13°N, 0.02°W
Report Text: EGKK 262120Z VRB02KT 1700 -DZRA BKN002 10/10 Q1008 REDZ
Loading
Personal Weather Stations






























Interactive Weather Map New forecast layout! Learn more

10-Day Weather Forecast

Advertisements
Track Severe Weather on mobile